Terminal Aerodrome Forecast
Issued by NWS Topeka, KS

Home | Current Version | Previous Version | Text Only | Print | Product List | Glossary Off
Versions: 1 2 3 4 5 6 7 8 9 10 11 12 13 14 15 16 17 18 19 20 21 22 23 24 25 26 27

000
FTUS43 KTOP 040952 AAA
TAFTOP
TAF AMD
KTOP 040952Z 0410/0506 VRB03KT 3SM -RA BR FEW003 BKN015
     FM041500 26004KT P6SM OVC015
     FM041700 27005KT P6SM SCT100=

USA.gov is the U.S. government's official web portal to all federal, state and local government web resources and services.